アピア の空港の天気 - METARとTAF

ファレオロ国際空港(サモア) ( NSFA / APW ) - サモア アピア
飛行場実況気象(Metar)
観測時間12/02 13:00 WSDT (12/01 23:00 UTC)
風向・風速北北東 5m/s
視程10km以上
天気現象
少しの雲 雲底高度 610m
全天の4割程度の雲 雲底高度 1980m
全天を覆う雲 雲底高度 5490m
気温30℃
湿度79%
気圧1011hPa
METARNSFA 012300Z 02009KT 9999 FEW020 SCT065 OVC180 30/26 Q1011
過去の天気等 Google飛行場航空写真 Wunderground天気予報

過去48時間のMETAR

飛行場予報(TAF)
データがありません